createdAt,value
2022-10-13T00:01:11.330Z,0.30
2022-10-13T00:03:40.228Z,0.67
2022-10-13T00:06:10.249Z,0.83
2022-10-13T00:08:40.994Z,0.83
2022-10-13T00:11:13.734Z,0.30
2022-10-13T00:13:42.571Z,0.73
2022-10-13T00:16:11.307Z,0.67
2022-10-13T00:18:39.822Z,1.03
2022-10-13T00:21:09.694Z,0.20
2022-10-13T00:23:40.094Z,1.17
2022-10-13T00:26:10.910Z,0.87
2022-10-13T00:28:39.780Z,0.20
2022-10-13T00:31:17.073Z,0.50
2022-10-13T00:33:45.286Z,0.33
2022-10-13T00:36:13.425Z,0.40
2022-10-13T00:38:43.946Z,0.60
2022-10-13T00:41:12.388Z,0.53
2022-10-13T00:43:52.924Z,0.83
2022-10-13T00:46:21.763Z,0.63
2022-10-13T00:48:51.405Z,0.50
2022-10-13T00:51:22.742Z,0.33
2022-10-13T00:53:54.829Z,0.90
2022-10-13T00:56:25.096Z,0.20
2022-10-13T00:58:54.843Z,0.40
2022-10-13T01:01:23.261Z,0.50
2022-10-13T01:03:51.339Z,0.80
2022-10-13T01:06:23.591Z,0.40
2022-10-13T01:08:54.837Z,0.60
2022-10-13T01:11:43.310Z,0.30
2022-10-13T01:14:18.890Z,0.57
2022-10-13T01:16:56.887Z,0.40
2022-10-13T01:19:46.075Z,0.30
2022-10-13T01:22:27.337Z,0.30
2022-10-13T01:25:04.736Z,0.20
2022-10-13T01:28:00.549Z,0.20
2022-10-13T01:30:35.864Z,0.37
2022-10-13T01:33:21.384Z,0.47
2022-10-13T01:36:10.736Z,0.50
2022-10-13T01:38:45.862Z,0.70
2022-10-13T01:41:19.707Z,0.67
2022-10-13T01:43:52.996Z,0.47
2022-10-13T01:46:26.134Z,0.43
2022-10-13T01:48:57.450Z,0.97
2022-10-13T01:51:27.890Z,1.10
2022-10-13T01:53:55.895Z,0.43
2022-10-13T01:56:24.082Z,0.40
2022-10-13T01:58:53.881Z,0.33
2022-10-13T02:01:40.282Z,0.30
2022-10-13T02:04:20.010Z,0.27
2022-10-13T02:06:54.019Z,0.50
2022-10-13T02:09:29.854Z,0.20
2022-10-13T02:12:06.785Z,0.40
2022-10-13T02:14:39.514Z,0.37
2022-10-13T02:17:09.414Z,0.40
2022-10-13T02:19:39.171Z,0.37
2022-10-13T02:22:09.802Z,0.53
2022-10-13T02:24:38.207Z,0.80
2022-10-13T02:27:07.381Z,0.67
2022-10-13T02:29:35.804Z,0.30
2022-10-13T02:32:03.796Z,0.40
2022-10-13T02:34:33.272Z,0.20
2022-10-13T02:37:01.303Z,0.23
2022-10-13T02:39:29.521Z,0.50
2022-10-13T02:41:57.566Z,0.40
2022-10-13T02:44:25.762Z,0.40
2022-10-13T02:46:53.848Z,0.30
2022-10-13T02:49:21.917Z,0.30
2022-10-13T02:51:51.297Z,0.50
2022-10-13T02:54:19.528Z,0.63
2022-10-13T02:56:47.519Z,0.90
2022-10-13T02:59:15.514Z,0.67
2022-10-13T03:01:44.876Z,0.33
2022-10-13T03:04:13.126Z,0.93
2022-10-13T03:06:41.197Z,0.40
2022-10-13T03:09:10.497Z,0.57
2022-10-13T03:11:38.545Z,0.37
2022-10-13T03:14:06.611Z,0.50
2022-10-13T03:16:34.790Z,0.70
2022-10-13T03:19:02.852Z,0.37
2022-10-13T03:21:31.400Z,0.43
2022-10-13T03:23:59.486Z,0.30
2022-10-13T03:26:28.980Z,0.30
2022-10-13T03:28:57.056Z,0.93
2022-10-13T03:31:25.282Z,0.57
2022-10-13T03:33:53.519Z,0.20
2022-10-13T03:36:21.755Z,0.13
2022-10-13T03:38:49.859Z,0.10
2022-10-13T03:41:19.992Z,0.30
2022-10-13T03:43:49.422Z,0.17
2022-10-13T03:46:19.273Z,0.60
2022-10-13T03:48:48.138Z,0.40
2022-10-13T03:51:18.228Z,0.53
2022-10-13T03:53:46.737Z,0.57
2022-10-13T03:56:17.679Z,0.30
2022-10-13T03:58:46.069Z,0.20
2022-10-13T04:01:17.063Z,0.20
2022-10-13T04:03:45.311Z,0.20
2022-10-13T04:06:13.419Z,0.70
2022-10-13T04:08:41.465Z,0.30
2022-10-13T04:11:12.182Z,0.70
2022-10-13T04:13:40.463Z,0.17
2022-10-13T04:16:10.789Z,0.70
2022-10-13T04:18:44.453Z,0.70
2022-10-13T04:23:42.026Z,0.10
2022-10-13T04:26:16.972Z,0.30
2022-10-13T04:28:45.322Z,0.70
2022-10-13T04:31:13.323Z,0.80
2022-10-13T04:33:42.714Z,0.67
2022-10-13T04:36:13.473Z,0.90
2022-10-13T04:38:42.082Z,1.37
2022-10-13T04:41:11.848Z,0.37
2022-10-13T04:43:39.827Z,0.93
2022-10-13T04:46:10.160Z,0.50
2022-10-13T04:48:38.106Z,0.20
2022-10-13T04:51:09.513Z,1.20
2022-10-13T04:53:37.984Z,1.03
2022-10-13T04:56:08.580Z,0.40
2022-10-13T04:58:36.930Z,0.30
2022-10-13T05:01:06.901Z,0.30
2022-10-13T05:03:35.491Z,0.33
2022-10-13T05:06:03.409Z,0.40
2022-10-13T05:08:34.191Z,0.13
2022-10-13T05:11:03.418Z,0.40
2022-10-13T05:13:31.903Z,0.40
2022-10-13T05:15:59.964Z,0.53
2022-10-13T05:18:28.313Z,1.63
2022-10-13T05:20:56.219Z,0.67
2022-10-13T05:23:24.387Z,0.90
2022-10-13T05:25:53.921Z,0.77
2022-10-13T05:28:22.297Z,0.63
2022-10-13T05:30:50.665Z,0.93
2022-10-13T05:33:18.635Z,0.57
2022-10-13T05:35:46.623Z,0.50
2022-10-13T05:38:14.660Z,0.30
2022-10-13T05:40:42.770Z,0.47
2022-10-13T05:43:12.158Z,0.30
2022-10-13T05:45:41.017Z,0.33
2022-10-13T05:48:08.971Z,0.40
2022-10-13T05:50:37.400Z,1.07
2022-10-13T05:53:05.433Z,1.27
2022-10-13T05:55:33.460Z,0.43
2022-10-13T05:58:03.570Z,0.73
2022-10-13T06:00:32.948Z,0.23
2022-10-13T06:03:08.554Z,0.80
2022-10-13T06:05:37.335Z,0.50
2022-10-13T06:08:05.810Z,0.53
2022-10-13T06:10:34.056Z,0.40
2022-10-13T06:13:02.146Z,0.87
2022-10-13T06:15:30.173Z,0.87
2022-10-13T06:18:00.024Z,0.40
2022-10-13T06:20:28.622Z,0.87
2022-10-13T06:22:57.143Z,1.57
2022-10-13T06:25:25.173Z,1.07
2022-10-13T06:27:53.109Z,0.33
2022-10-13T06:30:21.265Z,0.40
2022-10-13T06:32:49.337Z,1.17
2022-10-13T06:35:18.877Z,1.45
2022-10-13T06:37:48.797Z,1.73
2022-10-13T06:40:17.294Z,5.68
2022-10-13T06:42:51.139Z,5.90
2022-10-13T06:45:19.450Z,4.15
2022-10-13T06:47:47.773Z,2.90
2022-10-13T06:50:15.801Z,2.27
2022-10-13T06:52:45.265Z,0.50
2022-10-13T06:55:13.378Z,2.22
2022-10-13T06:57:41.272Z,1.83
2022-10-13T07:00:10.946Z,1.17
2022-10-13T07:02:39.234Z,1.13
2022-10-13T07:05:07.784Z,0.68
2022-10-13T07:07:36.184Z,1.15
2022-10-13T07:10:06.084Z,1.05
2022-10-13T07:12:34.086Z,1.17
2022-10-13T07:15:02.078Z,1.15
2022-10-13T07:17:30.057Z,1.15
2022-10-13T07:19:58.681Z,2.45
2022-10-13T07:22:28.418Z,2.28
2022-10-13T07:24:56.602Z,1.80
2022-10-13T07:27:26.057Z,1.65
2022-10-13T07:29:54.098Z,1.98
2022-10-13T07:32:22.138Z,1.35
2022-10-13T07:34:53.801Z,0.98
2022-10-13T07:37:22.254Z,1.55
2022-10-13T07:39:50.572Z,1.40
2022-10-13T07:42:18.925Z,0.80
2022-10-13T07:44:48.542Z,0.65
2022-10-13T07:47:16.745Z,0.88
2022-10-13T07:49:45.022Z,2.83
2022-10-13T07:52:13.162Z,1.73
2022-10-13T07:54:41.162Z,1.10
2022-10-13T07:57:09.199Z,0.80
2022-10-13T07:59:37.281Z,1.88
2022-10-13T08:02:06.957Z,1.52
2022-10-13T08:04:36.230Z,0.90
2022-10-13T08:07:05.844Z,1.08
2022-10-13T08:09:34.335Z,0.90
2022-10-13T08:12:02.755Z,1.25
2022-10-13T08:14:31.140Z,1.00
2022-10-13T08:16:59.541Z,0.80
2022-10-13T08:19:29.062Z,0.70
2022-10-13T08:21:58.659Z,0.40
2022-10-13T08:24:28.230Z,0.57
2022-10-13T08:26:56.508Z,0.55
2022-10-13T08:29:24.926Z,0.68
2022-10-13T08:31:53.837Z,0.90
2022-10-13T08:34:22.804Z,0.70
2022-10-13T08:36:56.582Z,0.88
2022-10-13T08:39:25.847Z,1.15
2022-10-13T08:41:56.486Z,0.65
2022-10-13T08:47:26.057Z,0.63
2022-10-13T08:50:00.285Z,0.43
2022-10-13T08:52:43.542Z,0.85
2022-10-13T08:55:21.734Z,0.50
2022-10-13T08:57:50.475Z,0.47
2022-10-13T09:00:19.877Z,0.40
2022-10-13T09:02:48.486Z,0.45
2022-10-13T09:05:25.570Z,0.55
2022-10-13T09:07:56.871Z,0.65
2022-10-13T09:10:25.327Z,0.28
2022-10-13T09:12:53.416Z,0.57
2022-10-13T09:15:22.462Z,0.52
2022-10-13T09:18:10.517Z,0.95
2022-10-13T09:20:38.840Z,0.70
2022-10-13T09:23:17.724Z,0.50
2022-10-13T09:25:48.006Z,0.55
2022-10-13T09:28:19.999Z,0.65
2022-10-13T09:30:48.911Z,0.30
2022-10-13T09:33:24.905Z,0.57
2022-10-13T09:36:11.908Z,0.10
2022-10-13T09:38:43.203Z,0.30
2022-10-13T09:41:17.701Z,0.43
2022-10-13T09:44:00.318Z,0.55
2022-10-13T09:46:31.593Z,0.10
2022-10-13T09:49:04.077Z,0.63
2022-10-13T09:51:36.697Z,0.40
2022-10-13T09:54:07.606Z,0.52
2022-10-13T09:56:41.021Z,0.13
2022-10-13T09:59:17.947Z,0.50
2022-10-13T10:01:49.956Z,0.30
2022-10-13T10:04:22.162Z,0.40
2022-10-13T10:06:50.316Z,0.35
2022-10-13T10:09:33.572Z,0.35
2022-10-13T10:12:03.220Z,0.47
2022-10-13T10:14:34.688Z,0.30
2022-10-13T10:17:08.816Z,0.38
2022-10-13T10:20:00.702Z,0.45
2022-10-13T10:22:38.933Z,0.35
2022-10-13T10:25:33.395Z,0.40
2022-10-13T10:28:24.199Z,0.10
2022-10-13T10:31:00.524Z,0.55
2022-10-13T10:33:49.701Z,0.57
2022-10-13T10:36:23.744Z,0.30
2022-10-13T10:38:55.613Z,0.40
2022-10-13T10:41:39.361Z,0.20
2022-10-13T10:44:11.917Z,0.30
2022-10-13T10:46:44.381Z,0.10
2022-10-13T10:49:19.198Z,0.43
2022-10-13T10:51:49.241Z,0.17
2022-10-13T10:54:32.646Z,0.30
2022-10-13T10:57:08.582Z,0.30
2022-10-13T10:59:50.912Z,0.17
2022-10-13T11:02:39.032Z,0.17
2022-10-13T11:05:07.858Z,0.17
2022-10-13T11:08:01.022Z,0.30
2022-10-13T11:10:30.103Z,0.20
2022-10-13T11:13:23.774Z,0.35
2022-10-13T11:15:52.285Z,0.10
2022-10-13T11:19:06.149Z,0.15
2022-10-13T11:22:10.645Z,0.33
2022-10-13T11:25:06.466Z,0.10
2022-10-13T11:27:43.730Z,0.20
2022-10-13T11:30:51.743Z,0.50
2022-10-13T11:33:57.141Z,0.35
2022-10-13T11:36:40.076Z,0.25
2022-10-13T11:42:14.950Z,0.40
2022-10-13T11:44:53.094Z,0.10
2022-10-13T11:47:45.248Z,1.48
2022-10-13T11:50:23.821Z,2.50
2022-10-13T11:53:16.453Z,0.75
2022-10-13T11:55:50.346Z,0.43
2022-10-13T11:58:21.437Z,0.10
2022-10-13T12:00:58.602Z,0.35
2022-10-13T12:03:31.692Z,0.30
2022-10-13T12:06:03.706Z,0.60
2022-10-13T12:08:35.296Z,0.00
2022-10-13T12:11:07.988Z,0.03
2022-10-13T12:13:37.653Z,0.35
2022-10-13T12:16:08.441Z,0.10
2022-10-13T12:18:40.315Z,0.32
2022-10-13T12:21:12.580Z,0.20
2022-10-13T12:23:41.134Z,0.10
2022-10-13T12:26:16.301Z,0.08
2022-10-13T12:28:51.462Z,0.05
2022-10-13T12:31:22.482Z,0.10
2022-10-13T12:33:57.411Z,0.30
2022-10-13T12:36:31.062Z,0.30
2022-10-13T12:39:03.892Z,0.08
2022-10-13T12:41:34.895Z,0.40
2022-10-13T12:44:06.528Z,0.35
2022-10-13T12:46:45.711Z,0.10
2022-10-13T12:49:21.935Z,0.10
2022-10-13T12:51:52.603Z,0.20
2022-10-13T12:54:24.431Z,0.20
2022-10-13T12:56:56.648Z,0.20
2022-10-13T12:59:26.747Z,0.22
2022-10-13T13:01:58.223Z,0.10
2022-10-13T13:04:43.909Z,0.00
2022-10-13T13:07:31.195Z,0.38
2022-10-13T13:10:12.589Z,0.10
2022-10-13T13:12:41.111Z,0.20
2022-10-13T13:15:34.355Z,0.10
2022-10-13T13:18:35.992Z,0.13
2022-10-13T13:21:07.355Z,0.20
2022-10-13T13:23:35.906Z,0.10
2022-10-13T13:26:09.054Z,0.22
2022-10-13T13:28:37.285Z,0.03
2022-10-13T13:31:05.882Z,0.13
2022-10-13T13:33:34.256Z,0.03
2022-10-13T13:36:02.461Z,0.20
2022-10-13T13:38:33.413Z,0.30
2022-10-13T13:41:04.039Z,0.10
2022-10-13T13:43:32.501Z,0.45
2022-10-13T13:46:01.109Z,0.20
2022-10-13T13:48:29.261Z,0.20
2022-10-13T13:50:57.359Z,0.00
2022-10-13T13:53:25.867Z,0.40
2022-10-13T13:55:55.735Z,0.20
2022-10-13T13:58:23.913Z,0.10
2022-10-13T14:00:52.182Z,0.10
2022-10-13T14:03:20.613Z,0.32
2022-10-13T14:05:48.901Z,0.10
2022-10-13T14:08:16.990Z,0.00
2022-10-13T14:10:45.679Z,0.10
2022-10-13T14:13:15.623Z,0.35
2022-10-13T14:15:43.915Z,0.20
2022-10-13T14:18:13.628Z,0.30
2022-10-13T14:20:43.313Z,0.10
2022-10-13T14:23:12.986Z,0.52
2022-10-13T14:25:41.117Z,0.40
2022-10-13T14:28:09.237Z,0.00
2022-10-13T14:30:40.738Z,0.20
2022-10-13T14:33:10.081Z,0.57
2022-10-13T14:35:38.177Z,0.00
2022-10-13T14:38:06.255Z,0.40
2022-10-13T14:40:34.659Z,0.30
2022-10-13T14:43:02.956Z,0.10
2022-10-13T14:45:31.222Z,0.20
2022-10-13T14:48:00.908Z,0.45
2022-10-13T14:50:29.028Z,1.10
2022-10-13T14:52:57.135Z,0.40
2022-10-13T14:55:25.576Z,0.22
2022-10-13T14:57:53.693Z,1.63
2022-10-13T15:00:21.941Z,0.85
2022-10-13T15:02:50.353Z,1.13
2022-10-13T15:05:20.252Z,1.23
2022-10-13T15:07:48.681Z,0.90
2022-10-13T15:10:17.237Z,0.88
2022-10-13T15:12:45.486Z,0.82
2022-10-13T15:15:14.015Z,0.65
2022-10-13T15:17:42.361Z,0.55
2022-10-13T15:20:11.972Z,0.55
2022-10-13T15:22:41.910Z,0.30
2022-10-13T15:25:12.009Z,0.63
2022-10-13T15:27:42.245Z,0.30
2022-10-13T15:30:11.528Z,0.68
2022-10-13T15:32:39.874Z,0.35
2022-10-13T15:35:08.862Z,0.52
2022-10-13T15:37:37.037Z,0.50
2022-10-13T15:40:07.871Z,0.75
2022-10-13T15:42:36.130Z,0.40
2022-10-13T15:45:09.863Z,0.28
2022-10-13T15:47:39.433Z,0.40
2022-10-13T15:50:08.860Z,0.30
2022-10-13T15:52:39.664Z,0.73
2022-10-13T15:55:11.681Z,0.28
2022-10-13T15:57:40.440Z,0.85
2022-10-13T16:00:12.059Z,0.90
2022-10-13T16:02:41.852Z,1.02
2022-10-13T16:05:11.674Z,0.77
2022-10-13T16:07:41.228Z,0.50
2022-10-13T16:10:13.651Z,0.60
2022-10-13T16:12:45.620Z,0.30
2022-10-13T16:15:18.395Z,0.93
2022-10-13T16:17:46.910Z,0.88
2022-10-13T16:20:15.421Z,0.50
2022-10-13T16:22:43.591Z,0.88
2022-10-13T16:25:13.373Z,0.82
2022-10-13T16:27:44.261Z,0.57
2022-10-13T16:30:13.530Z,0.60
2022-10-13T16:32:41.686Z,0.20
2022-10-13T16:35:10.359Z,0.70
2022-10-13T16:37:38.733Z,0.90
2022-10-13T16:40:08.029Z,1.05
2022-10-13T16:42:37.737Z,0.40
2022-10-13T16:45:07.442Z,0.80
2022-10-13T16:47:35.485Z,0.63
2022-10-13T16:50:06.699Z,1.15
2022-10-13T16:52:34.843Z,0.80
2022-10-13T16:55:03.545Z,1.00
2022-10-13T16:57:32.719Z,1.00
2022-10-13T17:00:02.703Z,0.98
2022-10-13T17:02:30.917Z,0.75
2022-10-13T17:04:59.282Z,1.08
2022-10-13T17:07:27.424Z,1.00
2022-10-13T17:09:55.795Z,1.17
2022-10-13T17:12:25.263Z,0.98
2022-10-13T17:14:53.638Z,0.50
2022-10-13T17:17:23.511Z,0.93
2022-10-13T17:19:52.344Z,0.93
2022-10-13T17:22:20.580Z,0.85
2022-10-13T17:24:49.473Z,0.80
2022-10-13T17:27:18.446Z,1.38
2022-10-13T17:29:46.834Z,0.90
2022-10-13T17:32:15.158Z,0.77
2022-10-13T17:34:44.819Z,1.67
2022-10-13T17:37:13.191Z,0.73
2022-10-13T17:39:41.846Z,0.98
2022-10-13T17:42:09.994Z,0.83
2022-10-13T17:44:38.585Z,0.63
2022-10-13T17:47:07.375Z,0.52
2022-10-13T17:49:35.512Z,1.48
2022-10-13T17:52:05.572Z,1.20
2022-10-13T17:54:33.652Z,0.57
2022-10-13T17:57:01.829Z,0.47
2022-10-13T17:59:30.062Z,0.60
2022-10-13T18:01:58.210Z,1.27
2022-10-13T18:04:29.144Z,1.50
2022-10-13T18:06:57.376Z,0.90
2022-10-13T18:09:26.902Z,1.23
2022-10-13T18:11:55.464Z,1.35
2022-10-13T18:14:25.135Z,1.40
2022-10-13T18:16:54.220Z,1.00
2022-10-13T18:19:23.111Z,1.38
2022-10-13T18:21:53.132Z,0.63
2022-10-13T18:24:21.940Z,1.47
2022-10-13T18:26:51.859Z,1.17
2022-10-13T18:29:20.411Z,1.33
2022-10-13T18:31:48.942Z,0.80
2022-10-13T18:34:19.090Z,1.43
2022-10-13T18:36:48.726Z,0.77
2022-10-13T18:39:19.605Z,0.50
2022-10-13T18:41:48.831Z,2.43
2022-10-13T18:44:19.031Z,1.20
2022-10-13T18:46:49.764Z,1.10
2022-10-13T18:49:21.705Z,1.10
2022-10-13T18:51:51.819Z,1.63
2022-10-13T18:54:20.207Z,1.40
2022-10-13T18:56:48.511Z,0.73
2022-10-13T18:59:18.418Z,0.90
2022-10-13T19:01:46.883Z,0.67
2022-10-13T19:04:16.925Z,0.80
2022-10-13T19:06:46.721Z,1.70
2022-10-13T19:09:17.563Z,0.87
2022-10-13T19:11:46.083Z,0.97
2022-10-13T19:14:14.733Z,1.53
2022-10-13T19:16:45.050Z,1.80
2022-10-13T19:19:13.456Z,0.93
2022-10-13T19:21:41.981Z,1.07
2022-10-13T19:24:10.996Z,1.30
2022-10-13T19:26:39.566Z,1.23
2022-10-13T19:29:10.201Z,1.43
2022-10-13T19:31:39.545Z,1.47
2022-10-13T19:34:09.648Z,0.53
2022-10-13T19:36:41.345Z,0.80
2022-10-13T19:39:13.099Z,1.20
2022-10-13T19:41:41.913Z,1.17
2022-10-13T19:44:10.367Z,0.60
2022-10-13T19:46:38.736Z,0.90
2022-10-13T19:49:08.837Z,0.63
2022-10-13T19:51:37.620Z,0.67
2022-10-13T19:54:06.550Z,1.27
2022-10-13T19:56:34.626Z,1.20
2022-10-13T19:59:04.426Z,0.50
2022-10-13T20:01:33.059Z,1.23
2022-10-13T20:04:01.445Z,0.60
2022-10-13T20:06:31.480Z,0.67
2022-10-13T20:08:59.740Z,0.93
2022-10-13T20:11:27.948Z,0.90
2022-10-13T20:13:56.452Z,0.50
2022-10-13T20:16:26.488Z,0.60
2022-10-13T20:18:55.947Z,0.60
2022-10-13T20:21:24.761Z,0.90
2022-10-13T20:23:54.845Z,0.97
2022-10-13T20:26:23.878Z,0.87
2022-10-13T20:28:53.437Z,0.30
2022-10-13T20:31:23.070Z,0.57
2022-10-13T20:33:56.004Z,0.93
2022-10-13T20:36:25.847Z,1.83
2022-10-13T20:38:56.350Z,1.47
2022-10-13T20:41:26.333Z,1.13
2022-10-13T20:43:56.300Z,0.87
2022-10-13T20:46:24.955Z,1.40
2022-10-13T20:49:11.589Z,1.00
2022-10-13T20:51:40.705Z,1.13
2022-10-13T20:54:10.853Z,0.37
2022-10-13T20:56:38.935Z,0.70
2022-10-13T20:59:10.026Z,0.30
2022-10-13T21:01:38.427Z,0.93
2022-10-13T21:04:07.312Z,0.30
2022-10-13T21:06:35.949Z,0.93
2022-10-13T21:09:05.206Z,0.47
2022-10-13T21:11:35.653Z,0.40
2022-10-13T21:14:07.089Z,0.83
2022-10-13T21:16:36.444Z,0.60
2022-10-13T21:19:05.033Z,0.47
2022-10-13T21:21:34.493Z,0.80
2022-10-13T21:24:05.620Z,0.63
2022-10-13T21:26:35.752Z,0.53
2022-10-13T21:29:04.062Z,0.37
2022-10-13T21:31:32.356Z,0.60
2022-10-13T21:34:01.014Z,0.60
2022-10-13T21:36:30.900Z,0.57
2022-10-13T21:39:00.771Z,0.60
2022-10-13T21:41:29.934Z,0.70
2022-10-13T21:43:59.525Z,0.30
2022-10-13T21:46:29.137Z,0.73
2022-10-13T21:48:59.137Z,0.10
2022-10-13T21:51:29.811Z,0.50
2022-10-13T21:54:00.143Z,0.63
2022-10-13T21:56:29.252Z,0.10
2022-10-13T21:58:57.987Z,0.27
2022-10-13T22:01:27.697Z,0.40
2022-10-13T22:03:57.814Z,0.80
2022-10-13T22:06:26.784Z,0.50
2022-10-13T22:08:56.581Z,0.83
2022-10-13T22:11:26.818Z,0.43
2022-10-13T22:13:56.913Z,0.40
2022-10-13T22:16:29.071Z,0.53
2022-10-13T22:18:58.082Z,0.57
2022-10-13T22:21:29.988Z,0.30
2022-10-13T22:23:59.244Z,0.47
2022-10-13T22:26:29.151Z,0.40
2022-10-13T22:28:58.179Z,0.20
2022-10-13T22:31:28.241Z,0.43
2022-10-13T22:33:56.627Z,0.60
2022-10-13T22:36:27.101Z,0.40
2022-10-13T22:38:57.158Z,0.53
2022-10-13T22:41:25.500Z,0.30
2022-10-13T22:43:55.240Z,0.60
2022-10-13T22:46:24.707Z,0.73
2022-10-13T22:48:54.366Z,1.13
2022-10-13T22:51:24.618Z,0.80
2022-10-13T22:53:53.384Z,0.20
2022-10-13T22:56:23.813Z,0.50
2022-10-13T22:58:52.810Z,0.40
2022-10-13T23:01:21.886Z,0.60
2022-10-13T23:03:51.223Z,0.20
2022-10-13T23:06:22.945Z,0.50
2022-10-13T23:08:51.714Z,0.30
2022-10-13T23:11:20.436Z,0.40
2022-10-13T23:13:48.597Z,1.03
2022-10-13T23:16:19.020Z,0.43
2022-10-13T23:18:47.512Z,0.90
2022-10-13T23:21:17.844Z,0.77
2022-10-13T23:23:47.526Z,0.60
2022-10-13T23:26:17.966Z,0.40
2022-10-13T23:28:46.174Z,0.60
2022-10-13T23:31:16.535Z,0.50
2022-10-13T23:33:45.643Z,0.23
2022-10-13T23:36:17.795Z,1.33
2022-10-13T23:38:47.669Z,0.50
2022-10-13T23:41:17.705Z,0.80
2022-10-13T23:43:45.899Z,0.30
2022-10-13T23:46:14.152Z,1.13
2022-10-13T23:48:42.940Z,0.83
2022-10-13T23:51:13.221Z,0.23
2022-10-13T23:53:42.020Z,0.20
2022-10-13T23:56:13.186Z,0.43
2022-10-13T23:58:43.004Z,0.23
